createdAt,value
2024-01-12T00:00:24.267Z,20.42
2024-01-12T00:01:30.469Z,20.43
2024-01-12T00:02:36.491Z,20.42
2024-01-12T00:03:42.575Z,20.42
2024-01-12T00:04:48.797Z,20.4
2024-01-12T00:05:54.850Z,20.39
2024-01-12T00:07:00.909Z,20.43
2024-01-12T00:08:06.936Z,20.41
2024-01-12T00:09:13.022Z,20.44
2024-01-12T00:10:19.133Z,20.43
2024-01-12T00:11:25.248Z,20.39
2024-01-12T00:12:31.308Z,20.38
2024-01-12T00:13:37.355Z,20.41
2024-01-12T00:15:49.604Z,20.43
2024-01-12T00:16:55.691Z,20.44
2024-01-12T00:18:01.886Z,20.38
2024-01-12T00:19:07.825Z,20.38
2024-01-12T00:20:14.023Z,20.36
2024-01-12T00:21:20.087Z,20.36
2024-01-12T00:22:26.184Z,20.34
2024-01-12T00:23:32.341Z,20.36
2024-01-12T00:24:38.413Z,20.36
2024-01-12T00:26:50.690Z,20.36
2024-01-12T00:27:56.667Z,20.37
2024-01-12T00:29:02.762Z,20.36
2024-01-12T00:30:08.911Z,20.36
2024-01-12T00:31:14.952Z,20.34
2024-01-12T00:32:21.113Z,20.35
2024-01-12T00:33:27.239Z,20.36
2024-01-12T00:34:33.184Z,20.39
2024-01-12T00:35:39.420Z,20.36
2024-01-12T00:36:45.418Z,20.35
2024-01-12T00:37:51.515Z,20.35
2024-01-12T00:38:57.650Z,20.33
2024-01-12T00:40:03.623Z,20.34
2024-01-12T00:41:09.814Z,20.34
2024-01-12T00:42:15.801Z,20.35
2024-01-12T00:43:22.009Z,20.36
2024-01-12T00:44:28.163Z,20.36
2024-01-12T00:45:34.094Z,20.31
2024-01-12T00:46:40.259Z,20.32
2024-01-12T00:47:46.387Z,20.34
2024-01-12T00:48:52.579Z,20.3
2024-01-12T00:49:58.545Z,20.3
2024-01-12T00:51:04.719Z,20.32
2024-01-12T00:52:10.731Z,20.33
2024-01-12T00:53:16.876Z,20.34
2024-01-12T00:54:22.951Z,20.29
2024-01-12T00:55:28.970Z,20.27
2024-01-12T00:56:35.284Z,20.29
2024-01-12T00:57:41.206Z,20.3
2024-01-12T00:58:47.307Z,20.34
2024-01-12T00:59:53.434Z,20.32
2024-01-12T01:00:59.530Z,20.32
2024-01-12T01:02:05.603Z,20.29
2024-01-12T01:03:11.701Z,20.29
2024-01-12T01:04:17.789Z,20.31
2024-01-12T01:05:23.897Z,20.27
2024-01-12T01:06:30.091Z,20.25
2024-01-12T01:07:36.088Z,20.26
2024-01-12T01:08:42.281Z,20.3
2024-01-12T01:09:48.253Z,20.3
2024-01-12T01:10:54.295Z,20.3
2024-01-12T01:12:00.578Z,20.29
2024-01-12T01:13:06.573Z,20.29
2024-01-12T01:14:12.663Z,20.27
2024-01-12T01:15:18.763Z,20.27
2024-01-12T01:17:30.996Z,20.29
2024-01-12T01:18:37.770Z,20.3
2024-01-12T01:19:43.141Z,20.31
2024-01-12T01:20:49.302Z,20.29
2024-01-12T01:21:55.317Z,20.3
2024-01-12T01:23:01.395Z,20.24
2024-01-12T01:24:07.508Z,20.29
2024-01-12T01:25:13.614Z,20.27
2024-01-12T01:26:19.701Z,20.33
2024-01-12T01:27:25.774Z,20.33
2024-01-12T01:28:31.873Z,20.31
2024-01-12T01:29:38.038Z,20.29
2024-01-12T01:30:44.021Z,20.27
2024-01-12T01:31:50.143Z,20.29
2024-01-12T01:32:56.342Z,20.25
2024-01-12T01:34:02.689Z,20.25
2024-01-12T01:35:08.425Z,20.31
2024-01-12T01:36:14.541Z,20.28
2024-01-12T01:37:20.659Z,20.28
2024-01-12T01:38:26.741Z,20.25
2024-01-12T01:39:32.809Z,20.27
2024-01-12T01:41:45.030Z,20.26
2024-01-12T01:42:51.093Z,20.27
2024-01-12T01:43:57.204Z,20.26
2024-01-12T01:45:03.451Z,20.3
2024-01-12T01:46:09.298Z,20.31
2024-01-12T01:47:15.523Z,20.27
2024-01-12T01:48:21.593Z,20.25
2024-01-12T01:49:27.821Z,20.22
2024-01-12T01:50:33.829Z,20.24
2024-01-12T01:51:39.778Z,20.22
2024-01-12T01:52:45.949Z,20.25
2024-01-12T01:53:52.126Z,20.26
2024-01-12T01:54:58.131Z,20.29
2024-01-12T01:56:04.251Z,20.25
2024-01-12T01:57:10.529Z,20.23
2024-01-12T01:58:16.434Z,20.27
2024-01-12T01:59:22.562Z,20.25
2024-01-12T02:02:40.962Z,20.28
2024-01-12T02:03:47.011Z,20.3
2024-01-12T02:04:53.024Z,20.27
2024-01-12T02:05:59.621Z,20.23
2024-01-12T02:07:05.194Z,20.22
2024-01-12T02:08:11.283Z,20.2
2024-01-12T02:09:17.495Z,20.21
2024-01-12T02:10:23.476Z,20.2
2024-01-12T02:11:29.597Z,20.24
2024-01-12T02:12:35.690Z,20.23
2024-01-12T02:13:41.795Z,20.22
2024-01-12T02:14:47.870Z,20.24
2024-01-12T02:15:53.927Z,20.22
2024-01-12T02:16:59.981Z,20.22
2024-01-12T02:18:06.197Z,20.2
2024-01-12T02:19:12.274Z,20.2
2024-01-12T02:20:18.353Z,20.21
2024-01-12T02:21:24.417Z,20.2
2024-01-12T02:22:30.515Z,20.22
2024-01-12T02:23:36.660Z,20.22
2024-01-12T02:24:42.734Z,20.21
2024-01-12T02:25:48.792Z,20.18
2024-01-12T02:26:54.850Z,20.18
2024-01-12T02:29:07.115Z,20.21
2024-01-12T02:30:13.265Z,20.21
2024-01-12T02:31:19.204Z,20.2
2024-01-12T02:32:25.440Z,20.2
2024-01-12T02:33:31.493Z,20.22
2024-01-12T02:34:37.556Z,20.21
2024-01-12T02:35:43.765Z,20.2
2024-01-12T02:36:49.684Z,20.2
2024-01-12T02:39:02.004Z,20.25
2024-01-12T02:40:08.025Z,20.22
2024-01-12T02:41:14.181Z,20.2
2024-01-12T02:42:20.138Z,20.2
2024-01-12T02:43:26.309Z,20.21
2024-01-12T02:44:32.436Z,20.2
2024-01-12T02:45:38.501Z,20.24
2024-01-12T02:46:44.610Z,20.24
2024-01-12T02:51:09.046Z,20.15
2024-01-12T02:52:14.992Z,20.15
2024-01-12T02:53:21.214Z,20.17
2024-01-12T02:54:27.260Z,20.21
2024-01-12T02:55:33.393Z,20.24
2024-01-12T02:56:39.617Z,20.21
2024-01-12T02:59:57.825Z,20.2
2024-01-12T03:01:03.927Z,20.17
2024-01-12T03:02:09.928Z,20.12
2024-01-12T03:03:16.184Z,20.1
2024-01-12T03:04:22.194Z,20.1
2024-01-12T03:05:28.718Z,20.13
2024-01-12T03:06:34.445Z,20.16
2024-01-12T03:07:40.386Z,20.15
2024-01-12T03:09:52.606Z,20.2
2024-01-12T03:10:58.750Z,20.24
2024-01-12T03:12:04.899Z,20.19
2024-01-12T03:13:10.881Z,20.17
2024-01-12T03:14:23.164Z,20.16
2024-01-12T03:15:29.235Z,20.18
2024-01-12T03:16:35.243Z,20.18
2024-01-12T03:17:41.509Z,20.18
2024-01-12T03:18:47.586Z,20.14
2024-01-12T03:19:53.645Z,20.14
2024-01-12T03:20:59.790Z,20.18
2024-01-12T03:22:05.778Z,20.16
2024-01-12T03:23:11.801Z,20.16
2024-01-12T03:24:17.975Z,20.16
2024-01-12T03:25:24.102Z,20.16
2024-01-12T03:26:30.192Z,20.15
2024-01-12T03:27:36.260Z,20.18
2024-01-12T03:28:42.377Z,20.17
2024-01-12T03:29:48.434Z,20.14
2024-01-12T03:32:00.629Z,20.16
2024-01-12T03:33:06.894Z,20.17
2024-01-12T03:34:12.940Z,20.17
2024-01-12T03:35:19.000Z,20.17
2024-01-12T03:36:25.013Z,20.19
2024-01-12T03:37:31.098Z,20.17
2024-01-12T03:38:37.241Z,20.17
2024-01-12T03:39:43.309Z,20.13
2024-01-12T03:40:49.409Z,20.13
2024-01-12T03:45:13.800Z,20.14
2024-01-12T03:46:19.874Z,20.16
2024-01-12T03:47:25.981Z,20.14
2024-01-12T03:48:32.237Z,20.15
2024-01-12T03:49:38.262Z,20.14
2024-01-12T03:50:44.290Z,20.16
2024-01-12T03:51:50.273Z,20.17
2024-01-12T03:52:56.430Z,20.15
2024-01-12T03:54:02.589Z,20.17
2024-01-12T03:55:08.643Z,20.21
2024-01-12T03:56:14.721Z,20.16
2024-01-12T03:57:20.733Z,20.11
2024-01-12T04:00:39.178Z,20.12
2024-01-12T04:01:45.276Z,20.17
2024-01-12T04:02:51.232Z,20.15
2024-01-12T04:03:57.429Z,20.16
2024-01-12T04:05:03.480Z,20.13
2024-01-12T04:06:09.750Z,20.14
2024-01-12T04:07:15.681Z,20.14
2024-01-12T04:08:21.856Z,20.15
2024-01-12T04:09:27.850Z,20.17
2024-01-12T04:10:33.959Z,20.16
2024-01-12T04:11:40.133Z,20.18
2024-01-12T04:12:46.077Z,20.22
2024-01-12T04:13:52.175Z,20.17
2024-01-12T04:14:58.423Z,20.2
2024-01-12T04:16:04.445Z,20.15
2024-01-12T04:17:10.551Z,20.14
2024-01-12T04:19:22.785Z,20.14
2024-01-12T04:20:28.944Z,20.12
2024-01-12T04:21:34.924Z,20.13
2024-01-12T04:22:41.003Z,20.15
2024-01-12T04:23:47.174Z,20.15
2024-01-12T04:24:53.207Z,20.14
2024-01-12T04:25:59.370Z,20.14
2024-01-12T04:27:05.411Z,20.2
2024-01-12T04:32:36.124Z,20.13
2024-01-12T04:33:42.225Z,20.11
2024-01-12T04:34:48.121Z,20.1
2024-01-12T04:35:54.298Z,20.13
2024-01-12T04:37:00.255Z,20.16
2024-01-12T04:38:06.345Z,20.13
2024-01-12T04:39:12.428Z,20.07
2024-01-12T04:40:18.532Z,20.08
2024-01-12T04:41:24.667Z,20.11
2024-01-12T04:48:01.240Z,20.11
2024-01-12T04:52:25.569Z,20.1
2024-01-12T04:54:37.764Z,20.15
2024-01-12T04:55:43.859Z,20.18
2024-01-12T04:56:50.033Z,20.12
2024-01-12T04:57:56.042Z,20.09
2024-01-12T04:59:02.174Z,20.1
2024-01-12T05:00:08.308Z,20.08
2024-01-12T05:01:14.363Z,20.11
2024-01-12T05:02:20.529Z,20.12
2024-01-12T05:03:26.597Z,20.14
2024-01-12T05:04:32.606Z,20.14
2024-01-12T05:05:38.804Z,20.1
2024-01-12T05:06:44.853Z,20.06
2024-01-12T05:07:50.904Z,20.07
2024-01-12T05:08:58.317Z,20.1
2024-01-12T05:10:03.101Z,20.11
2024-01-12T05:11:09.172Z,20.16
2024-01-12T05:12:15.308Z,20.18
2024-01-12T05:13:21.370Z,20.18
2024-01-12T05:22:10.143Z,20.1
2024-01-12T05:25:28.416Z,20.05
2024-01-12T05:28:46.724Z,20.08
2024-01-12T05:33:11.339Z,20.16
2024-01-12T05:34:17.250Z,20.17
2024-01-12T05:35:23.220Z,20.15
2024-01-12T05:36:29.366Z,20.13
2024-01-12T05:37:35.413Z,20.07
2024-01-12T05:38:41.619Z,20.08
2024-01-12T05:39:47.600Z,20.07
2024-01-12T05:40:53.781Z,20.04
2024-01-12T05:41:59.927Z,20.05
2024-01-12T05:44:12.080Z,20.08
2024-01-12T05:49:42.468Z,20.06
2024-01-12T05:50:48.670Z,20.07
2024-01-12T05:51:54.686Z,20.08
2024-01-12T05:53:00.780Z,20.04
2024-01-12T05:54:07.022Z,20.09
2024-01-12T05:55:13.004Z,20.11
2024-01-12T05:56:19.157Z,20.13
2024-01-12T05:57:25.212Z,20.15
2024-01-12T05:58:31.267Z,20.14
2024-01-12T05:59:37.405Z,20.11
2024-01-12T06:00:43.450Z,20.12
2024-01-12T06:01:49.586Z,20.1
2024-01-12T06:02:55.618Z,20.09
2024-01-12T06:04:01.849Z,20.05
2024-01-12T06:05:07.880Z,20.07
2024-01-12T06:06:14.029Z,20.09
2024-01-12T06:07:20.032Z,20.11
2024-01-12T06:08:26.138Z,20.09
2024-01-12T06:09:32.239Z,20.07
2024-01-12T06:10:38.317Z,20.11
2024-01-12T06:11:44.730Z,20.12
2024-01-12T06:12:50.506Z,20.08
2024-01-12T06:13:56.601Z,20.1
2024-01-12T06:15:02.688Z,20.13
2024-01-12T06:16:08.765Z,20.11
2024-01-12T06:17:14.911Z,20.09
2024-01-12T06:18:21.160Z,20.12
2024-01-12T06:19:27.156Z,20.12
2024-01-12T06:22:45.361Z,20.15
2024-01-12T06:28:15.813Z,20.14
2024-01-12T06:32:40.322Z,20.18
2024-01-12T06:33:46.406Z,20.2
2024-01-12T06:34:52.324Z,20.17
2024-01-12T06:35:58.526Z,20.19
2024-01-12T06:37:04.636Z,20.26
2024-01-12T06:38:10.704Z,20.19
2024-01-12T06:39:16.796Z,20.21
2024-01-12T06:40:22.869Z,20.19
2024-01-12T06:41:29.106Z,20.19
2024-01-12T06:42:35.068Z,20.19
2024-01-12T06:43:41.160Z,20.23
2024-01-12T06:44:47.334Z,20.28
2024-01-12T06:45:53.278Z,20.24
2024-01-12T06:46:59.419Z,20.25
2024-01-12T06:48:05.704Z,20.22
2024-01-12T06:50:17.796Z,20.23
2024-01-12T06:51:23.787Z,20.25
2024-01-12T06:52:29.898Z,20.21
2024-01-12T06:57:00.731Z,20.28
2024-01-12T06:58:06.461Z,20.27
2024-01-12T07:02:31.017Z,20.11
2024-01-12T07:03:37.043Z,20.09
2024-01-12T07:04:43.114Z,20.15
2024-01-12T07:05:49.404Z,20.22
2024-01-12T07:06:55.331Z,20.34
2024-01-12T07:08:01.355Z,20.36
2024-01-12T07:10:13.601Z,20.53
2024-01-12T07:11:19.694Z,20.64
2024-01-12T07:12:27.235Z,20.77
2024-01-12T07:13:31.902Z,20.83
2024-01-12T07:14:38.006Z,20.85
2024-01-12T07:15:44.036Z,20.92
2024-01-12T07:16:50.159Z,20.96
2024-01-12T07:17:56.416Z,21.05
2024-01-12T07:19:02.495Z,21.08
2024-01-12T07:20:09.205Z,21.15
2024-01-12T07:21:14.571Z,21.23
2024-01-12T07:22:20.617Z,21.28
2024-01-12T07:23:26.714Z,21.27
2024-01-12T07:24:32.817Z,21.28
2024-01-12T07:25:38.899Z,21.34
2024-01-12T07:26:45.075Z,21.31
2024-01-12T07:27:51.020Z,21.4
2024-01-12T07:28:57.232Z,21.48
2024-01-12T07:30:03.358Z,21.48
2024-01-12T07:31:09.356Z,21.59
2024-01-12T07:32:15.657Z,21.64
2024-01-12T07:33:21.716Z,21.68
2024-01-12T07:34:30.559Z,21.7
2024-01-12T07:39:58.140Z,21.86
2024-01-12T07:46:34.724Z,22.1
2024-01-12T07:47:40.888Z,22.12
2024-01-12T07:48:46.998Z,22.15
2024-01-12T07:49:53.113Z,22.14
2024-01-12T07:50:59.145Z,22.13
2024-01-12T07:52:05.172Z,22.15
2024-01-12T07:53:11.257Z,22.18
2024-01-12T07:54:17.393Z,22.25
2024-01-12T07:55:23.391Z,22.23
2024-01-12T08:05:18.451Z,22.61
2024-01-12T08:06:24.547Z,22.59
2024-01-12T08:07:30.523Z,22.53
2024-01-12T08:08:36.647Z,22.53
2024-01-12T08:09:42.688Z,22.54
2024-01-12T08:20:43.648Z,22.6
2024-01-12T08:25:08.006Z,22.77
2024-01-12T08:26:14.134Z,22.71
2024-01-12T08:27:20.258Z,22.81
2024-01-12T08:28:26.299Z,22.75
2024-01-12T08:29:32.418Z,22.83
2024-01-12T08:30:38.546Z,22.89
2024-01-12T08:31:44.609Z,22.94
2024-01-12T08:32:50.738Z,22.96
2024-01-12T08:33:56.960Z,22.89
2024-01-12T08:36:09.010Z,22.79
2024-01-12T08:41:39.391Z,22.89
2024-01-12T08:46:03.821Z,23.03
2024-01-12T08:47:09.828Z,23.03
2024-01-12T08:48:16.227Z,23.02
2024-01-12T08:49:22.169Z,23.03
2024-01-12T08:50:28.227Z,23.05
2024-01-12T08:51:34.208Z,22.98
2024-01-12T08:52:40.346Z,22.96
2024-01-12T08:53:46.504Z,22.86
2024-01-12T08:54:52.574Z,22.91
2024-01-12T08:55:58.656Z,22.92
2024-01-12T08:57:04.874Z,22.96
2024-01-12T09:00:23.186Z,23.08
2024-01-12T09:01:29.213Z,22.87
2024-01-12T09:05:53.831Z,23.13
2024-01-12T09:06:59.690Z,23.19
2024-01-12T09:08:05.640Z,23.11
2024-01-12T09:09:11.838Z,23.21
2024-01-12T09:10:17.891Z,23.28
2024-01-12T09:11:24.043Z,23.19
2024-01-12T09:12:30.069Z,23.16
2024-01-12T09:13:36.189Z,23.27
2024-01-12T09:14:42.300Z,23.28
2024-01-12T09:15:48.404Z,23.23
2024-01-12T09:16:54.397Z,23.19
2024-01-12T09:18:00.625Z,23.22
2024-01-12T09:19:06.819Z,23.26
2024-01-12T09:20:12.742Z,23.3
2024-01-12T09:21:18.970Z,23.4
2024-01-12T09:23:31.177Z,23.26
2024-01-12T09:24:37.146Z,23.33
2024-01-12T09:25:43.151Z,23.27
2024-01-12T09:26:49.355Z,23.33
2024-01-12T09:27:55.396Z,23.46
2024-01-12T09:29:01.489Z,23.41
2024-01-12T09:30:07.721Z,23.32
2024-01-12T09:31:13.720Z,23.27
2024-01-12T09:32:19.804Z,23.23
2024-01-12T09:33:25.962Z,23.3
2024-01-12T09:34:32.076Z,23.32
2024-01-12T09:36:44.162Z,23.26
2024-01-12T09:37:50.253Z,23.32
2024-01-12T09:45:32.975Z,23.31
2024-01-12T09:46:39.013Z,23.31
2024-01-12T09:47:45.172Z,23.28
2024-01-12T09:48:51.287Z,23.39
2024-01-12T09:49:57.400Z,23.29
2024-01-12T09:51:03.470Z,23.22
2024-01-12T09:52:09.480Z,23.26
2024-01-12T09:53:15.580Z,23.27
2024-01-12T09:54:21.651Z,23.23
2024-01-12T09:55:27.802Z,23.21
2024-01-12T09:56:39.877Z,23.13
2024-01-12T09:57:39.914Z,23.21
2024-01-12T09:58:47.745Z,23.17
2024-01-12T09:59:52.183Z,23.15
2024-01-12T10:00:58.286Z,23.33
2024-01-12T10:02:04.353Z,23.35
2024-01-12T10:07:34.809Z,23.47
2024-01-12T10:13:05.282Z,23.62
2024-01-12T10:24:06.356Z,23.62
2024-01-12T10:25:12.342Z,23.64
2024-01-12T10:26:18.462Z,23.56
2024-01-12T10:27:24.494Z,23.51
2024-01-12T10:28:30.759Z,23.31
2024-01-12T10:29:36.784Z,23.42
2024-01-12T10:30:42.849Z,23.51
2024-01-12T10:31:48.893Z,23.49
2024-01-12T10:32:55.117Z,23.46
2024-01-12T10:36:19.435Z,23.59
2024-01-12T10:39:37.696Z,23.51
2024-01-12T10:40:43.786Z,23.5
2024-01-12T10:41:49.975Z,23.35
2024-01-12T10:42:55.977Z,23.39
2024-01-12T10:44:02.094Z,23.51
2024-01-12T10:45:08.285Z,23.45
2024-01-12T10:46:14.289Z,23.45
2024-01-12T10:51:44.740Z,23.47
2024-01-12T10:52:50.768Z,23.43
2024-01-12T10:53:56.976Z,23.44
2024-01-12T10:55:03.025Z,23.44
2024-01-12T10:56:09.117Z,23.4
2024-01-12T10:57:15.298Z,23.48
2024-01-12T10:58:21.245Z,23.53
2024-01-12T10:59:27.486Z,23.58
2024-01-12T11:00:33.490Z,23.46
2024-01-12T11:03:51.826Z,23.53
2024-01-12T11:04:57.878Z,23.6
2024-01-12T11:06:04.064Z,23.73
2024-01-12T11:07:10.148Z,23.72
2024-01-12T11:09:22.235Z,23.71
2024-01-12T11:10:28.338Z,23.78
2024-01-12T11:11:34.465Z,23.72
2024-01-12T11:12:40.560Z,23.62
2024-01-12T11:13:46.650Z,23.78
2024-01-12T11:14:52.797Z,23.78
2024-01-12T11:15:58.876Z,23.79
2024-01-12T11:17:04.915Z,23.78
2024-01-12T11:18:11.175Z,23.87
2024-01-12T11:19:17.184Z,23.86
2024-01-12T11:20:23.328Z,23.91
2024-01-12T11:21:29.362Z,23.86
2024-01-12T11:22:35.394Z,23.75
2024-01-12T11:23:41.478Z,23.66
2024-01-12T11:24:47.634Z,23.62
2024-01-12T11:25:53.806Z,23.63
2024-01-12T11:28:05.874Z,23.69
2024-01-12T11:29:11.958Z,23.67
2024-01-12T11:31:24.237Z,23.81
2024-01-12T11:32:30.389Z,23.87
2024-01-12T11:33:36.802Z,23.9
2024-01-12T11:34:42.589Z,23.85
2024-01-12T11:35:48.538Z,23.76
2024-01-12T11:36:54.613Z,23.82
2024-01-12T11:38:00.679Z,23.78
2024-01-12T11:39:06.927Z,23.9
2024-01-12T11:40:12.951Z,23.85
2024-01-12T11:41:19.128Z,23.86
2024-01-12T11:42:25.116Z,23.98
2024-01-12T11:43:31.207Z,23.94
2024-01-12T11:44:37.445Z,23.86
2024-01-12T11:45:43.401Z,23.89
2024-01-12T11:46:49.491Z,23.93
2024-01-12T11:47:55.799Z,23.94
2024-01-12T11:49:01.916Z,23.85
2024-01-12T11:50:07.926Z,23.84
2024-01-12T11:56:44.407Z,23.77
2024-01-12T11:57:50.470Z,23.77
2024-01-12T11:58:56.539Z,23.78
2024-01-12T12:00:02.848Z,23.92
2024-01-12T12:01:08.745Z,23.91
2024-01-12T12:02:14.813Z,23.86
2024-01-12T12:03:21.023Z,23.81
2024-01-12T12:04:27.117Z,23.82
2024-01-12T12:05:33.388Z,23.88
2024-01-12T12:06:39.290Z,23.76
2024-01-12T12:07:45.286Z,23.57
2024-01-12T12:11:03.640Z,23.8
2024-01-12T12:12:09.953Z,23.73
2024-01-12T12:13:15.848Z,23.68
2024-01-12T12:14:21.949Z,23.68
2024-01-12T12:15:27.982Z,23.68
2024-01-12T12:16:34.095Z,23.55
2024-01-12T12:17:40.246Z,23.6
2024-01-12T12:18:46.503Z,23.69
2024-01-12T12:19:52.430Z,23.69
2024-01-12T12:20:58.492Z,23.72
2024-01-12T12:22:04.540Z,23.68
2024-01-12T12:23:10.629Z,23.68
2024-01-12T12:24:16.709Z,23.65
2024-01-12T12:25:22.743Z,23.77
2024-01-12T12:26:29.024Z,23.65
2024-01-12T12:37:29.880Z,23.79
2024-01-12T12:38:36.003Z,23.73
2024-01-12T12:39:42.054Z,23.69
2024-01-12T12:40:48.132Z,23.69
2024-01-12T12:44:06.471Z,23.77
2024-01-12T12:45:12.631Z,23.67
2024-01-12T12:46:18.671Z,23.61
2024-01-12T12:47:24.790Z,23.78
2024-01-12T12:48:31.012Z,23.62
2024-01-12T12:49:37.089Z,23.48
2024-01-12T12:50:43.054Z,23.54
2024-01-12T12:51:49.092Z,23.52
2024-01-12T12:52:55.232Z,23.69
2024-01-12T12:54:01.359Z,23.64
2024-01-12T12:55:07.391Z,23.71
2024-01-12T12:56:13.482Z,23.67
2024-01-12T13:01:43.976Z,23.62
2024-01-12T13:02:50.018Z,23.67
2024-01-12T13:03:56.244Z,23.59
2024-01-12T13:06:08.556Z,23.55
2024-01-12T13:07:14.426Z,23.52
2024-01-12T13:13:50.923Z,23.63
2024-01-12T13:14:57.113Z,23.73
2024-01-12T13:16:03.183Z,23.57
2024-01-12T13:17:09.272Z,23.6
2024-01-12T13:18:15.445Z,23.64
2024-01-12T13:19:25.911Z,23.55
2024-01-12T13:20:27.733Z,23.46
2024-01-12T13:21:33.723Z,23.55
2024-01-12T13:22:39.758Z,23.74
2024-01-12T13:23:45.901Z,23.73
2024-01-12T13:28:10.253Z,23.73
2024-01-12T13:29:16.243Z,23.66
2024-01-12T13:30:22.563Z,23.65
2024-01-12T13:31:28.519Z,23.62
2024-01-12T13:32:34.709Z,23.67
2024-01-12T13:33:40.859Z,23.72
2024-01-12T13:34:46.887Z,23.67
2024-01-12T13:35:52.979Z,23.63
2024-01-12T13:36:59.007Z,23.8
2024-01-12T13:38:05.114Z,23.86
2024-01-12T13:39:11.228Z,23.88
2024-01-12T13:40:17.276Z,23.86
2024-01-12T13:41:23.404Z,23.78
2024-01-12T13:42:29.698Z,23.64
2024-01-12T13:43:35.566Z,23.6
2024-01-12T13:44:41.694Z,23.46
2024-01-12T13:45:47.753Z,23.5
2024-01-12T13:46:53.862Z,23.49
2024-01-12T13:48:00.150Z,23.46
2024-01-12T13:49:06.247Z,23.44
2024-01-12T13:50:12.169Z,23.42
2024-01-12T13:51:18.250Z,23.27
2024-01-12T13:52:24.321Z,23.22
2024-01-12T13:53:30.454Z,23.27
2024-01-12T13:54:36.506Z,23.29
2024-01-12T14:03:25.400Z,23.34
2024-01-12T14:04:31.462Z,23.56
2024-01-12T14:05:37.680Z,23.66
2024-01-12T14:06:43.640Z,23.65
2024-01-12T14:07:49.691Z,23.64
2024-01-12T14:08:55.806Z,23.68
2024-01-12T14:10:01.874Z,23.79
2024-01-12T14:11:07.943Z,23.72
2024-01-12T14:12:13.993Z,23.53
2024-01-12T14:13:20.122Z,23.58
2024-01-12T14:16:44.571Z,23.57
2024-01-12T14:17:50.719Z,23.73
2024-01-12T14:18:56.942Z,23.7
2024-01-12T14:20:02.863Z,23.61
2024-01-12T14:21:09.082Z,23.62
2024-01-12T14:22:15.028Z,23.59
2024-01-12T14:23:21.167Z,23.75
2024-01-12T14:24:27.343Z,23.56
2024-01-12T14:25:33.325Z,23.57
2024-01-12T14:26:39.429Z,23.6
2024-01-12T14:27:45.501Z,23.61
2024-01-12T14:28:51.598Z,23.64
2024-01-12T14:29:57.739Z,23.56
2024-01-12T14:31:03.865Z,23.72
2024-01-12T14:32:09.894Z,23.79
2024-01-12T14:33:16.256Z,23.81
2024-01-12T14:34:22.034Z,23.79
2024-01-12T14:43:10.839Z,23.68
2024-01-12T14:45:23.012Z,23.67
2024-01-12T14:46:29.133Z,23.72
2024-01-12T14:47:35.411Z,23.74
2024-01-12T14:48:41.434Z,23.75
2024-01-12T14:49:47.640Z,23.77
2024-01-12T14:50:53.575Z,23.71
2024-01-12T14:55:17.907Z,23.81
2024-01-12T14:56:23.950Z,23.91
2024-01-12T14:57:30.078Z,23.79
2024-01-12T14:58:36.102Z,23.88
2024-01-12T14:59:42.329Z,23.9
2024-01-12T15:00:48.394Z,23.74
2024-01-12T15:01:54.461Z,23.87
2024-01-12T15:03:00.750Z,23.95
2024-01-12T15:05:12.984Z,23.65
2024-01-12T15:07:25.037Z,23.82
2024-01-12T15:08:31.125Z,23.91
2024-01-12T15:09:37.164Z,23.92
2024-01-12T15:10:43.157Z,23.82
2024-01-12T15:11:49.457Z,23.67
2024-01-12T15:14:01.546Z,23.85
2024-01-12T15:15:07.867Z,23.73
2024-01-12T15:16:13.639Z,23.68
2024-01-12T15:17:19.802Z,23.64
2024-01-12T15:18:26.206Z,23.78
2024-01-12T15:19:32.123Z,23.77
2024-01-12T15:20:38.123Z,23.89
2024-01-12T15:21:44.168Z,23.86
2024-01-12T15:22:50.283Z,23.68
2024-01-12T15:36:03.482Z,23.86
2024-01-12T15:37:09.429Z,23.72
2024-01-12T15:40:27.838Z,23.42
2024-01-12T15:41:33.978Z,23.32
2024-01-12T15:42:45.555Z,23.47
2024-01-12T15:43:46.232Z,23.63
2024-01-12T15:44:52.236Z,23.57
2024-01-12T15:45:58.321Z,23.43
2024-01-12T15:47:04.367Z,23.44
2024-01-12T15:48:10.673Z,23.45
2024-01-12T15:49:16.757Z,23.36
2024-01-12T15:50:22.700Z,23.52
2024-01-12T15:52:34.792Z,23.63
2024-01-12T15:56:59.267Z,23.58
2024-01-12T15:58:05.302Z,23.47
2024-01-12T15:59:13.454Z,23.41
2024-01-12T16:00:17.675Z,23.33
2024-01-12T16:01:23.613Z,23.37
2024-01-12T16:06:54.381Z,23.3
2024-01-12T16:08:00.177Z,23.34
2024-01-12T16:09:06.357Z,23.51
2024-01-12T16:10:12.363Z,23.59
2024-01-12T16:11:18.447Z,23.52
2024-01-12T16:12:24.621Z,23.65
2024-01-12T16:13:30.687Z,23.59
2024-01-12T16:14:36.766Z,23.67
2024-01-12T16:15:42.841Z,23.69
2024-01-12T16:16:48.932Z,23.74
2024-01-12T16:17:55.177Z,23.67
2024-01-12T16:19:08.076Z,23.59
2024-01-12T16:20:07.467Z,23.44
2024-01-12T16:23:25.541Z,23.58
2024-01-12T16:24:31.623Z,23.59
2024-01-12T16:25:37.726Z,23.61
2024-01-12T16:26:43.833Z,23.51
2024-01-12T16:27:49.832Z,23.48
2024-01-12T16:28:55.994Z,23.46
2024-01-12T16:30:02.258Z,23.32
2024-01-12T16:31:08.253Z,23.32
2024-01-12T16:32:14.254Z,23.43
2024-01-12T16:33:20.581Z,23.34
2024-01-12T16:35:32.612Z,23.29
2024-01-12T16:36:38.664Z,23.28
2024-01-12T16:37:44.759Z,23.21
2024-01-12T16:38:50.867Z,23.15
2024-01-12T16:39:56.951Z,23.07
2024-01-12T16:41:03.025Z,22.94
2024-01-12T16:42:09.326Z,22.85
2024-01-12T16:43:15.218Z,22.74
2024-01-12T16:44:21.308Z,22.64
2024-01-12T16:45:27.494Z,22.56
2024-01-12T16:46:33.515Z,22.54
2024-01-12T16:47:39.739Z,22.52
2024-01-12T16:48:45.846Z,22.46
2024-01-12T16:49:51.918Z,22.44
2024-01-12T16:50:57.920Z,22.45
2024-01-12T16:52:03.992Z,22.43
2024-01-12T16:53:10.094Z,22.45
2024-01-12T16:54:16.280Z,22.39
2024-01-12T16:55:23.046Z,22.35
2024-01-12T16:56:28.440Z,22.35
2024-01-12T16:57:34.487Z,22.32
2024-01-12T16:58:40.574Z,22.31
2024-01-12T16:59:46.728Z,22.24
2024-01-12T17:00:52.828Z,22.24
2024-01-12T17:03:05.005Z,22.23
2024-01-12T17:04:11.184Z,22.19
2024-01-12T17:05:17.198Z,22.16
2024-01-12T17:06:23.234Z,22.18
2024-01-12T17:08:35.435Z,22.15
2024-01-12T17:11:53.777Z,22.13
2024-01-12T17:12:59.795Z,22.15
2024-01-12T17:14:05.815Z,22.05
2024-01-12T17:15:12.053Z,22.06
2024-01-12T17:16:18.059Z,22.09
2024-01-12T17:17:30.344Z,22.1
2024-01-12T17:20:42.627Z,22.11
2024-01-12T17:21:48.558Z,22.08
2024-01-12T17:22:54.555Z,22.09
2024-01-12T17:33:55.705Z,21.95
2024-01-12T17:35:01.730Z,21.96
2024-01-12T17:36:07.830Z,21.94
2024-01-12T17:37:13.895Z,21.97
2024-01-12T17:38:19.967Z,21.96
2024-01-12T17:39:26.052Z,21.95
2024-01-12T17:41:38.261Z,21.94
2024-01-12T17:42:44.338Z,21.95
2024-01-12T17:43:50.437Z,21.97
2024-01-12T17:44:56.433Z,21.95
2024-01-12T17:46:02.619Z,21.92
2024-01-12T17:47:08.704Z,21.9
2024-01-12T17:51:33.108Z,21.92
2024-01-12T17:52:39.212Z,21.84
2024-01-12T17:53:45.419Z,21.87
2024-01-12T17:54:51.379Z,21.85
2024-01-12T17:56:03.603Z,21.82
2024-01-12T18:01:34.127Z,21.74
2024-01-12T18:02:40.146Z,21.77
2024-01-12T18:03:46.503Z,21.78
2024-01-12T18:04:52.377Z,21.75
2024-01-12T18:07:04.575Z,21.75
2024-01-12T18:08:10.664Z,21.74
2024-01-12T18:09:16.718Z,21.71
2024-01-12T18:10:22.917Z,21.68
2024-01-12T18:11:28.995Z,21.7
2024-01-12T18:12:35.059Z,21.76
2024-01-12T18:13:41.165Z,21.75
2024-01-12T18:14:47.264Z,21.66
2024-01-12T18:15:53.352Z,21.67
2024-01-12T18:16:59.436Z,21.68
2024-01-12T18:19:11.789Z,21.61
2024-01-12T18:20:17.731Z,21.65
2024-01-12T18:21:23.850Z,21.63
2024-01-12T18:22:29.922Z,21.64
2024-01-12T18:23:36.037Z,21.63
2024-01-12T18:25:48.194Z,21.61
2024-01-12T18:26:54.377Z,21.61
2024-01-12T18:29:06.398Z,21.55
2024-01-12T18:30:12.689Z,21.53
2024-01-12T18:31:18.757Z,21.52
2024-01-12T18:32:24.993Z,21.54
2024-01-12T18:34:37.153Z,21.51
2024-01-12T18:35:43.186Z,21.53
2024-01-12T18:36:49.277Z,21.56
2024-01-12T18:37:55.243Z,21.55
2024-01-12T18:39:01.369Z,21.52
2024-01-12T18:40:07.426Z,21.5
2024-01-12T18:41:13.498Z,21.48
2024-01-12T18:42:19.663Z,21.5
2024-01-12T18:43:25.738Z,21.52
2024-01-12T18:44:31.838Z,21.51
2024-01-12T18:45:37.894Z,21.52
2024-01-12T18:46:44.062Z,21.49
2024-01-12T18:47:50.156Z,21.47
2024-01-12T18:48:56.269Z,21.47
2024-01-12T18:50:02.410Z,21.46
2024-01-12T18:51:08.427Z,21.44
2024-01-12T18:52:14.488Z,21.42
2024-01-12T18:53:20.590Z,21.39
2024-01-12T18:54:26.641Z,21.38
2024-01-12T18:55:32.866Z,21.45